sensor_id;sensor_type;location;lat;lon;timestamp;pressure;altitude;pressure_sealevel;temperature;humidity
37238;BME280;23129;49.662;8.448;2023-03-25T00:00:17;99924.94;;;11.37;89.00
37238;BME280;23129;49.662;8.448;2023-03-25T00:02:49;99921.75;;;11.29;88.73
37238;BME280;23129;49.662;8.448;2023-03-25T00:05:20;99930.78;;;11.22;89.23
37238;BME280;23129;49.662;8.448;2023-03-25T00:07:50;99943.28;;;11.15;89.67
37238;BME280;23129;49.662;8.448;2023-03-25T00:10:20;99936.59;;;11.07;89.94
37238;BME280;23129;49.662;8.448;2023-03-25T00:12:50;99934.28;;;10.99;89.95
37238;BME280;23129;49.662;8.448;2023-03-25T00:15:19;99933.69;;;10.92;90.23
37238;BME280;23129;49.662;8.448;2023-03-25T00:17:48;99941.78;;;10.86;90.30
37238;BME280;23129;49.662;8.448;2023-03-25T00:20:17;99958.53;;;10.82;90.27
37238;BME280;23129;49.662;8.448;2023-03-25T00:22:45;99964.00;;;10.76;90.76
37238;BME280;23129;49.662;8.448;2023-03-25T00:25:14;99962.50;;;10.69;91.11
37238;BME280;23129;49.662;8.448;2023-03-25T00:27:47;99964.44;;;10.64;90.87
37238;BME280;23129;49.662;8.448;2023-03-25T00:30:18;99965.59;;;10.57;90.73
37238;BME280;23129;49.662;8.448;2023-03-25T00:32:47;99970.13;;;10.51;91.18
37238;BME280;23129;49.662;8.448;2023-03-25T00:35:19;99966.78;;;10.46;91.38
37238;BME280;23129;49.662;8.448;2023-03-25T00:37:50;99967.88;;;10.41;91.38
37238;BME280;23129;49.662;8.448;2023-03-25T00:40:24;99962.72;;;10.38;91.87
37238;BME280;23129;49.662;8.448;2023-03-25T00:42:56;99953.25;;;10.35;91.91
37238;BME280;23129;49.662;8.448;2023-03-25T00:45:24;99963.75;;;10.34;91.92
37238;BME280;23129;49.662;8.448;2023-03-25T00:47:53;99979.44;;;10.35;91.80
37238;BME280;23129;49.662;8.448;2023-03-25T00:50:22;99970.59;;;10.38;91.97
37238;BME280;23129;49.662;8.448;2023-03-25T00:52:51;99972.25;;;10.40;92.28
37238;BME280;23129;49.662;8.448;2023-03-25T00:55:21;99970.44;;;10.42;92.22
37238;BME280;23129;49.662;8.448;2023-03-25T00:57:49;99963.50;;;10.41;92.73
37238;BME280;23129;49.662;8.448;2023-03-25T01:00:19;99963.50;;;10.41;92.47
37238;BME280;23129;49.662;8.448;2023-03-25T01:02:48;99963.50;;;10.41;92.55
37238;BME280;23129;49.662;8.448;2023-03-25T01:05:20;99971.25;;;10.44;92.39
37238;BME280;23129;49.662;8.448;2023-03-25T01:07:49;99970.34;;;10.45;92.54
37238;BME280;23129;49.662;8.448;2023-03-25T01:10:18;99959.75;;;10.48;92.64
37238;BME280;23129;49.662;8.448;2023-03-25T01:12:47;99951.84;;;10.50;92.74
37238;BME280;23129;49.662;8.448;2023-03-25T01:15:19;99943.91;;;10.51;92.49
37238;BME280;23129;49.662;8.448;2023-03-25T01:17:48;99951.72;;;10.53;92.66
37238;BME280;23129;49.662;8.448;2023-03-25T01:20:17;99954.28;;;10.55;92.88
37238;BME280;23129;49.662;8.448;2023-03-25T01:22:45;99955.97;;;10.56;93.30
37238;BME280;23129;49.662;8.448;2023-03-25T01:25:14;99941.97;;;10.57;92.64
37238;BME280;23129;49.662;8.448;2023-03-25T01:27:42;99952.59;;;10.54;92.74
37238;BME280;23129;49.662;8.448;2023-03-25T01:30:13;99965.44;;;10.36;92.61
37238;BME280;23129;49.662;8.448;2023-03-25T01:32:43;99958.50;;;10.07;93.68
37238;BME280;23129;49.662;8.448;2023-03-25T01:35:12;99944.47;;;9.83;94.41
37238;BME280;23129;49.662;8.448;2023-03-25T01:37:41;99942.38;;;9.66;95.16
37238;BME280;23129;49.662;8.448;2023-03-25T01:40:18;99947.16;;;9.53;95.87
37238;BME280;23129;49.662;8.448;2023-03-25T01:42:46;99934.28;;;9.47;96.32
37238;BME280;23129;49.662;8.448;2023-03-25T01:45:21;99938.69;;;9.45;96.75
37238;BME280;23129;49.662;8.448;2023-03-25T01:47:58;99942.22;;;9.44;96.78
37238;BME280;23129;49.662;8.448;2023-03-25T01:50:29;99935.19;;;9.46;96.62
37238;BME280;23129;49.662;8.448;2023-03-25T01:53:02;99960.50;;;9.46;96.09
37238;BME280;23129;49.662;8.448;2023-03-25T01:55:33;99962.63;;;9.33;95.87
37238;BME280;23129;49.662;8.448;2023-03-25T01:58:05;99951.19;;;9.07;96.47
37238;BME280;23129;49.662;8.448;2023-03-25T02:00:37;99956.41;;;8.78;97.13
37238;BME280;23129;49.662;8.448;2023-03-25T02:03:08;99943.22;;;8.51;98.22
37238;BME280;23129;49.662;8.448;2023-03-25T02:05:43;99942.78;;;8.34;98.65
37238;BME280;23129;49.662;8.448;2023-03-25T02:08:15;99909.31;;;8.15;99.39
37238;BME280;23129;49.662;8.448;2023-03-25T02:10:45;99918.28;;;8.05;100.00
37238;BME280;23129;49.662;8.448;2023-03-25T02:13:15;99913.22;;;7.99;100.00
37238;BME280;23129;49.662;8.448;2023-03-25T02:15:57;99912.50;;;7.94;100.00
37238;BME280;23129;49.662;8.448;2023-03-25T02:18:36;99911.75;;;7.89;100.00
37238;BME280;23129;49.662;8.448;2023-03-25T02:24:48;99906.75;;;7.80;100.00
37238;BME280;23129;49.662;8.448;2023-03-25T02:27:36;99905.06;;;7.78;100.00
37238;BME280;23129;49.662;8.448;2023-03-25T02:30:55;99912.03;;;7.76;100.00
37238;BME280;23129;49.662;8.448;2023-03-25T02:39:58;99941.59;;;7.78;100.00
37238;BME280;23129;49.662;8.448;2023-03-25T02:42:33;99942.38;;;7.82;100.00
37238;BME280;23129;49.662;8.448;2023-03-25T02:45:10;99948.38;;;7.86;100.00
37238;BME280;23129;49.662;8.448;2023-03-25T02:47:45;99944.81;;;7.90;100.00
37238;BME280;23129;49.662;8.448;2023-03-25T02:50:19;99941.22;;;7.94;100.00
37238;BME280;23129;49.662;8.448;2023-03-25T02:52:50;99951.56;;;7.97;100.00
37238;BME280;23129;49.662;8.448;2023-03-25T02:55:23;99944.50;;;8.02;100.00
37238;BME280;23129;49.662;8.448;2023-03-25T02:57:55;99943.53;;;8.05;100.00
37238;BME280;23129;49.662;8.448;2023-03-25T03:00:26;99947.81;;;8.07;100.00
37238;BME280;23129;49.662;8.448;2023-03-25T03:02:57;99941.66;;;8.10;100.00
37238;BME280;23129;49.662;8.448;2023-03-25T03:05:30;99945.97;;;8.12;100.00
37238;BME280;23129;49.662;8.448;2023-03-25T03:08:08;99944.19;;;8.14;100.00
37238;BME280;23129;49.662;8.448;2023-03-25T03:10:51;99940.63;;;8.17;100.00
37238;BME280;23129;49.662;8.448;2023-03-25T03:13:34;99936.97;;;8.22;100.00
37238;BME280;23129;49.662;8.448;2023-03-25T03:16:11;99942.06;;;8.29;100.00
37238;BME280;23129;49.662;8.448;2023-03-25T03:18:47;99938.38;;;8.36;100.00
37238;BME280;23129;49.662;8.448;2023-03-25T03:21:25;99917.34;;;8.42;100.00
37238;BME280;23129;49.662;8.448;2023-03-25T03:23:58;99925.91;;;8.47;100.00
37238;BME280;23129;49.662;8.448;2023-03-25T03:26:38;99944.13;;;8.50;100.00
37238;BME280;23129;49.662;8.448;2023-03-25T03:29:12;99932.59;;;8.57;100.00
37238;BME280;23129;49.662;8.448;2023-03-25T03:31:45;99939.41;;;8.63;100.00
37238;BME280;23129;49.662;8.448;2023-03-25T03:34:36;99935.84;;;8.65;100.00
37238;BME280;23129;49.662;8.448;2023-03-25T03:37:12;99960.13;;;8.71;100.00
37238;BME280;23129;49.662;8.448;2023-03-25T03:39:44;99943.47;;;8.73;100.00
37238;BME280;23129;49.662;8.448;2023-03-25T03:42:19;99937.28;;;8.76;100.00
37238;BME280;23129;49.662;8.448;2023-03-25T03:44:55;99938.97;;;8.78;100.00
37238;BME280;23129;49.662;8.448;2023-03-25T03:47:29;99954.63;;;8.80;100.00
37238;BME280;23129;49.662;8.448;2023-03-25T03:50:03;99950.25;;;8.80;100.00
37238;BME280;23129;49.662;8.448;2023-03-25T03:52:38;99956.25;;;8.84;100.00
37238;BME280;23129;49.662;8.448;2023-03-25T03:55:11;99952.72;;;8.85;100.00
37238;BME280;23129;49.662;8.448;2023-03-25T03:57:46;99951.75;;;8.89;100.00
37238;BME280;23129;49.662;8.448;2023-03-25T04:00:19;99941.28;;;8.89;100.00
37238;BME280;23129;49.662;8.448;2023-03-25T04:02:53;99930.00;;;8.87;99.71
37238;BME280;23129;49.662;8.448;2023-03-25T04:05:25;99950.16;;;8.83;99.26
37238;BME280;23129;49.662;8.448;2023-03-25T04:08:00;99959.78;;;8.83;99.59
37238;BME280;23129;49.662;8.448;2023-03-25T04:10:36;99958.94;;;8.81;99.58
37238;BME280;23129;49.662;8.448;2023-03-25T04:13:12;99963.34;;;8.79;99.80
37238;BME280;23129;49.662;8.448;2023-03-25T04:15:42;99979.97;;;8.76;99.94
37238;BME280;23129;49.662;8.448;2023-03-25T04:18:11;99977.41;;;8.75;99.91
37238;BME280;23129;49.662;8.448;2023-03-25T04:20:40;99988.72;;;8.77;100.00
37238;BME280;23129;49.662;8.448;2023-03-25T04:23:11;99978.16;;;8.80;100.00
37238;BME280;23129;49.662;8.448;2023-03-25T04:25:42;99990.25;;;8.82;100.00
37238;BME280;23129;49.662;8.448;2023-03-25T04:28:15;99984.25;;;8.80;99.94
37238;BME280;23129;49.662;8.448;2023-03-25T04:30:44;99987.72;;;8.81;100.00
37238;BME280;23129;49.662;8.448;2023-03-25T04:33:13;99986.84;;;8.80;100.00
37238;BME280;23129;49.662;8.448;2023-03-25T04:35:41;99998.16;;;8.81;100.00
37238;BME280;23129;49.662;8.448;2023-03-25T04:38:10;100007.78;;;8.80;100.00
37238;BME280;23129;49.662;8.448;2023-03-25T04:40:39;99999.88;;;8.82;100.00
37238;BME280;23129;49.662;8.448;2023-03-25T04:43:14;100013.78;;;8.84;100.00
37238;BME280;23129;49.662;8.448;2023-03-25T04:45:43;100005.88;;;8.85;100.00
37238;BME280;23129;49.662;8.448;2023-03-25T04:48:23;100014.59;;;8.86;100.00
37238;BME280;23129;49.662;8.448;2023-03-25T04:50:56;100004.06;;;8.87;100.00
37238;BME280;23129;49.662;8.448;2023-03-25T04:53:25;100009.22;;;8.90;100.00
37238;BME280;23129;49.662;8.448;2023-03-25T04:55:54;100010.06;;;8.91;100.00
37238;BME280;23129;49.662;8.448;2023-03-25T04:58:24;100014.38;;;8.94;100.00
37238;BME280;23129;49.662;8.448;2023-03-25T05:00:53;100010.00;;;8.94;100.00
37238;BME280;23129;49.662;8.448;2023-03-25T05:03:21;100016.09;;;8.95;100.00
37238;BME280;23129;49.662;8.448;2023-03-25T05:05:51;100008.19;;;8.96;100.00
37238;BME280;23129;49.662;8.448;2023-03-25T05:08:20;100015.13;;;8.97;100.00
37238;BME280;23129;49.662;8.448;2023-03-25T05:10:49;100002.88;;;8.99;100.00
37238;BME280;23129;49.662;8.448;2023-03-25T05:13:19;100005.41;;;9.02;100.00
37238;BME280;23129;49.662;8.448;2023-03-25T05:15:49;100006.22;;;9.04;100.00
37238;BME280;23129;49.662;8.448;2023-03-25T05:18:18;100000.09;;;9.05;99.96
37238;BME280;23129;49.662;8.448;2023-03-25T05:20:46;100000.91;;;9.07;100.00
37238;BME280;23129;49.662;8.448;2023-03-25T05:23:17;100013.00;;;9.11;100.00
37238;BME280;23129;49.662;8.448;2023-03-25T05:25:47;100002.53;;;9.11;100.00
37238;BME280;23129;49.662;8.448;2023-03-25T05:28:17;100021.66;;;9.13;100.00
37238;BME280;23129;49.662;8.448;2023-03-25T05:30:47;100010.28;;;9.14;100.00
37238;BME280;23129;49.662;8.448;2023-03-25T05:33:17;100011.09;;;9.17;100.00
37238;BME280;23129;49.662;8.448;2023-03-25T05:35:48;100023.19;;;9.21;100.00
37238;BME280;23129;49.662;8.448;2023-03-25T05:38:19;100004.78;;;9.24;99.22
37238;BME280;23129;49.662;8.448;2023-03-25T05:40:48;100023.00;;;9.27;98.63
37238;BME280;23129;49.662;8.448;2023-03-25T05:43:16;99998.47;;;9.31;98.96
37238;BME280;23129;49.662;8.448;2023-03-25T05:45:49;100009.78;;;9.31;98.96
37238;BME280;23129;49.662;8.448;2023-03-25T05:48:18;100028.06;;;9.33;98.97
37238;BME280;23129;49.662;8.448;2023-03-25T05:50:47;100014.97;;;9.33;98.80
37238;BME280;23129;49.662;8.448;2023-03-25T05:53:16;100017.59;;;9.33;98.85
37238;BME280;23129;49.662;8.448;2023-03-25T05:55:47;100021.03;;;9.35;99.30
37238;BME280;23129;49.662;8.448;2023-03-25T05:58:18;100045.41;;;9.37;99.11
37238;BME280;23129;49.662;8.448;2023-03-25T06:00:47;100029.69;;;9.37;99.34
37238;BME280;23129;49.662;8.448;2023-03-25T06:03:18;100067.19;;;9.37;99.52
37238;BME280;23129;49.662;8.448;2023-03-25T06:05:47;100044.63;;;9.33;99.35
37238;BME280;23129;49.662;8.448;2023-03-25T06:08:16;100037.09;;;9.23;99.96
37238;BME280;23129;49.662;8.448;2023-03-25T06:10:51;100048.00;;;9.07;100.00
37238;BME280;23129;49.662;8.448;2023-03-25T06:13:24;100057.72;;;9.02;100.00
37238;BME280;23129;49.662;8.448;2023-03-25T06:15:53;100053.41;;;9.01;100.00
37238;BME280;23129;49.662;8.448;2023-03-25T06:18:25;100058.53;;;9.04;100.00
37238;BME280;23129;49.662;8.448;2023-03-25T06:20:54;100040.97;;;9.09;100.00
37238;BME280;23129;49.662;8.448;2023-03-25T06:23:24;100051.34;;;9.12;100.00
37238;BME280;23129;49.662;8.448;2023-03-25T06:25:54;100069.66;;;9.12;100.00
37238;BME280;23129;49.662;8.448;2023-03-25T06:28:24;100058.28;;;9.13;100.00
37238;BME280;23129;49.662;8.448;2023-03-25T06:30:53;100061.91;;;9.09;100.00
37238;BME280;23129;49.662;8.448;2023-03-25T06:33:21;100069.94;;;9.02;100.00
37238;BME280;23129;49.662;8.448;2023-03-25T06:36:12;100071.91;;;8.94;100.00
37238;BME280;23129;49.662;8.448;2023-03-25T06:38:45;100072.13;;;8.86;100.00
37238;BME280;23129;49.662;8.448;2023-03-25T06:41:15;100075.06;;;8.74;100.00
37238;BME280;23129;49.662;8.448;2023-03-25T06:43:51;100076.25;;;8.62;100.00
37238;BME280;23129;49.662;8.448;2023-03-25T06:46:29;100065.06;;;8.55;100.00
37238;BME280;23129;49.662;8.448;2023-03-25T06:49:07;100065.16;;;8.52;100.00
37238;BME280;23129;49.662;8.448;2023-03-25T06:51:36;100060.66;;;8.57;100.00
37238;BME280;23129;49.662;8.448;2023-03-25T06:54:05;100059.56;;;8.67;100.00
37238;BME280;23129;49.662;8.448;2023-03-25T06:56:34;100060.94;;;8.81;100.00
37238;BME280;23129;49.662;8.448;2023-03-25T06:59:03;100060.50;;;8.96;100.00
37238;BME280;23129;49.662;8.448;2023-03-25T07:01:32;100036.41;;;9.16;100.00
37238;BME280;23129;49.662;8.448;2023-03-25T07:04:00;100038.25;;;9.42;100.00
37238;BME280;23129;49.662;8.448;2023-03-25T07:06:29;100041.88;;;9.66;100.00
37238;BME280;23129;49.662;8.448;2023-03-25T07:08:59;100052.88;;;9.79;100.00
37238;BME280;23129;49.662;8.448;2023-03-25T07:11:28;100048.84;;;9.95;100.00
37238;BME280;23129;49.662;8.448;2023-03-25T07:13:57;100021.41;;;10.07;100.00
37238;BME280;23129;49.662;8.448;2023-03-25T07:16:26;100046.34;;;10.19;100.00
37238;BME280;23129;49.662;8.448;2023-03-25T07:18:56;100028.72;;;10.24;100.00
37238;BME280;23129;49.662;8.448;2023-03-25T07:21:25;100021.63;;;10.26;99.32
37238;BME280;23129;49.662;8.448;2023-03-25T07:23:54;100017.22;;;10.30;99.31
37238;BME280;23129;49.662;8.448;2023-03-25T07:26:23;100016.94;;;10.37;99.61
37238;BME280;23129;49.662;8.448;2023-03-25T07:28:52;100020.66;;;10.57;100.00
37238;BME280;23129;49.662;8.448;2023-03-25T07:31:21;100014.66;;;10.78;100.00
37238;BME280;23129;49.662;8.448;2023-03-25T07:33:49;100014.59;;;11.03;100.00
37238;BME280;23129;49.662;8.448;2023-03-25T07:36:18;100038.81;;;11.11;99.81
37238;BME280;23129;49.662;8.448;2023-03-25T07:38:48;100018.78;;;11.09;99.91
37238;BME280;23129;49.662;8.448;2023-03-25T07:41:17;100016.34;;;11.04;99.50
37238;BME280;23129;49.662;8.448;2023-03-25T07:44:05;100020.81;;;11.01;99.42
37238;BME280;23129;49.662;8.448;2023-03-25T07:46:36;100014.56;;;11.05;99.08
37238;BME280;23129;49.662;8.448;2023-03-25T07:49:04;100022.31;;;11.08;98.74
37238;BME280;23129;49.662;8.448;2023-03-25T07:51:33;100018.66;;;11.12;98.86
37238;BME280;23129;49.662;8.448;2023-03-25T07:54:02;100021.03;;;11.19;98.45
37238;BME280;23129;49.662;8.448;2023-03-25T07:56:32;100010.91;;;11.32;98.27
37238;BME280;23129;49.662;8.448;2023-03-25T07:59:00;100008.03;;;11.38;97.50
37238;BME280;23129;49.662;8.448;2023-03-25T08:01:30;100017.72;;;11.36;97.23
37238;BME280;23129;49.662;8.448;2023-03-25T08:03:59;100028.47;;;11.30;98.15
37238;BME280;23129;49.662;8.448;2023-03-25T08:06:27;100034.06;;;11.21;96.82
37238;BME280;23129;49.662;8.448;2023-03-25T08:08:56;100037.09;;;11.10;96.63
37238;BME280;23129;49.662;8.448;2023-03-25T08:11:25;100033.91;;;11.02;95.57
37238;BME280;23129;49.662;8.448;2023-03-25T08:13:53;100023.50;;;10.99;96.10
37238;BME280;23129;49.662;8.448;2023-03-25T08:16:22;100029.72;;;10.96;96.82
37238;BME280;23129;49.662;8.448;2023-03-25T08:18:52;100034.22;;;10.93;97.01
37238;BME280;23129;49.662;8.448;2023-03-25T08:21:20;100031.75;;;10.88;97.15
37238;BME280;23129;49.662;8.448;2023-03-25T08:23:51;100031.03;;;10.85;97.23
37238;BME280;23129;49.662;8.448;2023-03-25T08:26:24;100041.63;;;10.82;97.33
37238;BME280;23129;49.662;8.448;2023-03-25T08:28:54;100022.34;;;10.83;98.13
37238;BME280;23129;49.662;8.448;2023-03-25T08:31:25;100038.88;;;10.85;98.53
37238;BME280;23129;49.662;8.448;2023-03-25T08:33:59;100016.25;;;10.82;98.18
37238;BME280;23129;49.662;8.448;2023-03-25T08:36:28;100033.03;;;10.77;98.37
37238;BME280;23129;49.662;8.448;2023-03-25T08:38:58;100010.66;;;10.91;98.97
37238;BME280;23129;49.662;8.448;2023-03-25T08:41:28;100013.53;;;11.09;99.29
37238;BME280;23129;49.662;8.448;2023-03-25T08:43:57;100036.03;;;11.16;98.41
37238;BME280;23129;49.662;8.448;2023-03-25T08:46:26;100048.91;;;10.99;97.90
37238;BME280;23129;49.662;8.448;2023-03-25T08:48:55;100037.34;;;10.79;98.14
37238;BME280;23129;49.662;8.448;2023-03-25T08:51:26;100031.03;;;10.60;98.73
37238;BME280;23129;49.662;8.448;2023-03-25T08:53:55;100025.25;;;10.50;98.88
37238;BME280;23129;49.662;8.448;2023-03-25T08:56:24;100028.84;;;10.47;99.44
37238;BME280;23129;49.662;8.448;2023-03-25T08:58:52;100026.00;;;10.54;99.91
37238;BME280;23129;49.662;8.448;2023-03-25T09:01:20;100022.34;;;10.58;99.84
37238;BME280;23129;49.662;8.448;2023-03-25T09:03:50;100020.66;;;10.57;99.45
37238;BME280;23129;49.662;8.448;2023-03-25T09:06:21;100019.84;;;10.55;99.70
37238;BME280;23129;49.662;8.448;2023-03-25T09:08:51;100010.19;;;10.55;99.76
37238;BME280;23129;49.662;8.448;2023-03-25T09:11:22;100025.78;;;10.60;100.00
37238;BME280;23129;49.662;8.448;2023-03-25T09:14:02;100004.69;;;10.63;100.00
37238;BME280;23129;49.662;8.448;2023-03-25T09:16:31;99994.00;;;10.69;100.00
37238;BME280;23129;49.662;8.448;2023-03-25T09:19:00;100013.91;;;10.74;100.00
37238;BME280;23129;49.662;8.448;2023-03-25T09:21:29;99999.03;;;10.75;100.00
37238;BME280;23129;49.662;8.448;2023-03-25T09:23:59;100001.75;;;10.72;100.00
37238;BME280;23129;49.662;8.448;2023-03-25T09:26:27;100016.25;;;10.57;100.00
37238;BME280;23129;49.662;8.448;2023-03-25T09:28:56;100024.16;;;10.31;100.00
37238;BME280;23129;49.662;8.448;2023-03-25T09:31:26;100022.16;;;10.11;100.00
37238;BME280;23129;49.662;8.448;2023-03-25T09:33:55;100019.34;;;9.90;100.00
37238;BME280;23129;49.662;8.448;2023-03-25T09:36:24;100001.34;;;9.79;100.00
37238;BME280;23129;49.662;8.448;2023-03-25T09:38:52;100027.72;;;9.73;100.00
37238;BME280;23129;49.662;8.448;2023-03-25T09:41:32;100005.19;;;9.68;100.00
37238;BME280;23129;49.662;8.448;2023-03-25T09:44:17;100017.38;;;9.69;100.00
37238;BME280;23129;49.662;8.448;2023-03-25T09:46:47;100032.09;;;9.73;100.00
37238;BME280;23129;49.662;8.448;2023-03-25T09:49:19;100021.44;;;9.79;100.00
37238;BME280;23129;49.662;8.448;2023-03-25T09:51:51;100020.31;;;9.86;100.00
37238;BME280;23129;49.662;8.448;2023-03-25T09:54:26;100027.13;;;9.92;100.00
37238;BME280;23129;49.662;8.448;2023-03-25T09:57:03;100034.06;;;9.93;100.00
37238;BME280;23129;49.662;8.448;2023-03-25T09:59:39;100036.66;;;9.94;100.00
37238;BME280;23129;49.662;8.448;2023-03-25T10:02:22;100036.84;;;9.88;100.00
37238;BME280;23129;49.662;8.448;2023-03-25T10:08:04;100037.25;;;9.76;100.00
37238;BME280;23129;49.662;8.448;2023-03-25T10:10:40;100016.06;;;10.10;100.00
37238;BME280;23129;49.662;8.448;2023-03-25T10:13:18;100003.84;;;10.62;100.00
37238;BME280;23129;49.662;8.448;2023-03-25T10:15:53;100003.94;;;11.08;100.00
37238;BME280;23129;49.662;8.448;2023-03-25T10:18:45;100001.69;;;11.44;100.00
37238;BME280;23129;49.662;8.448;2023-03-25T10:21:22;100003.84;;;11.78;100.00
37238;BME280;23129;49.662;8.448;2023-03-25T10:24:03;100000.59;;;11.95;100.00
37238;BME280;23129;49.662;8.448;2023-03-25T10:26:41;99994.78;;;12.09;100.00
37238;BME280;23129;49.662;8.448;2023-03-25T10:29:15;100010.22;;;12.17;99.97
37238;BME280;23129;49.662;8.448;2023-03-25T10:31:51;99989.78;;;12.23;98.77
37238;BME280;23129;49.662;8.448;2023-03-25T10:34:31;100005.91;;;12.36;97.82
37238;BME280;23129;49.662;8.448;2023-03-25T10:37:04;99986.75;;;12.53;97.59
37238;BME280;23129;49.662;8.448;2023-03-25T10:39:41;99996.38;;;12.74;96.99
37238;BME280;23129;49.662;8.448;2023-03-25T10:42:19;99986.41;;;12.81;96.30
37238;BME280;23129;49.662;8.448;2023-03-25T10:44:53;99990.97;;;12.77;96.55
37238;BME280;23129;49.662;8.448;2023-03-25T10:47:25;99992.81;;;12.75;95.01
37238;BME280;23129;49.662;8.448;2023-03-25T10:49:57;99980.06;;;12.66;94.34
37238;BME280;23129;49.662;8.448;2023-03-25T10:52:26;99983.28;;;12.52;93.32
37238;BME280;23129;49.662;8.448;2023-03-25T10:54:55;100014.06;;;12.30;94.07
37238;BME280;23129;49.662;8.448;2023-03-25T10:57:27;100035.63;;;11.72;93.12
37238;BME280;23129;49.662;8.448;2023-03-25T11:00:05;100047.16;;;10.97;95.81
37238;BME280;23129;49.662;8.448;2023-03-25T11:02:39;100061.28;;;10.43;98.53
37238;BME280;23129;49.662;8.448;2023-03-25T11:05:08;100042.91;;;10.17;100.00
37238;BME280;23129;49.662;8.448;2023-03-25T11:07:41;100049.28;;;10.10;100.00
37238;BME280;23129;49.662;8.448;2023-03-25T11:10:18;100059.63;;;10.14;100.00
37238;BME280;23129;49.662;8.448;2023-03-25T11:12:49;100065.41;;;10.24;100.00
37238;BME280;23129;49.662;8.448;2023-03-25T11:15:21;100049.94;;;10.43;100.00
37238;BME280;23129;49.662;8.448;2023-03-25T11:17:58;100048.69;;;11.05;100.00
37238;BME280;23129;49.662;8.448;2023-03-25T11:20:30;100025.78;;;11.77;100.00
37238;BME280;23129;49.662;8.448;2023-03-25T11:23:12;100045.03;;;12.44;100.00
37238;BME280;23129;49.662;8.448;2023-03-25T11:25:42;100027.13;;;12.93;100.00
37238;BME280;23129;49.662;8.448;2023-03-25T11:28:15;100025.94;;;13.39;100.00
37238;BME280;23129;49.662;8.448;2023-03-25T11:31:12;99998.25;;;13.86;100.00
37238;BME280;23129;49.662;8.448;2023-03-25T11:33:43;100023.44;;;14.10;100.00
37238;BME280;23129;49.662;8.448;2023-03-25T11:36:27;100024.09;;;14.33;99.86
37238;BME280;23129;49.662;8.448;2023-03-25T11:38:59;100023.56;;;14.61;98.96
37238;BME280;23129;49.662;8.448;2023-03-25T11:41:30;100014.00;;;14.76;96.04
37238;BME280;23129;49.662;8.448;2023-03-25T11:44:00;100013.25;;;14.90;96.26
37238;BME280;23129;49.662;8.448;2023-03-25T11:46:30;100011.28;;;15.11;95.18
37238;BME280;23129;49.662;8.448;2023-03-25T11:49:08;100070.63;;;15.37;95.97
37238;BME280;23129;49.662;8.448;2023-03-25T11:51:38;100022.75;;;15.59;95.61
37238;BME280;23129;49.662;8.448;2023-03-25T11:54:10;100006.91;;;15.74;92.51
37238;BME280;23129;49.662;8.448;2023-03-25T11:56:40;100002.63;;;15.88;92.07
37238;BME280;23129;49.662;8.448;2023-03-25T11:59:21;100011.13;;;16.09;90.11
37238;BME280;23129;49.662;8.448;2023-03-25T12:02:00;100002.25;;;16.10;87.90
37238;BME280;23129;49.662;8.448;2023-03-25T12:04:30;100011.19;;;16.23;87.44
37238;BME280;23129;49.662;8.448;2023-03-25T12:07:00;100013.94;;;16.52;86.91
37238;BME280;23129;49.662;8.448;2023-03-25T12:09:30;100026.13;;;16.84;86.43
37238;BME280;23129;49.662;8.448;2023-03-25T12:12:37;100037.00;;;16.94;87.22
37238;BME280;23129;49.662;8.448;2023-03-25T12:15:21;99999.03;;;17.08;83.87
37238;BME280;23129;49.662;8.448;2023-03-25T12:18:06;100013.16;;;17.08;83.62
37238;BME280;23129;49.662;8.448;2023-03-25T12:20:56;99989.00;;;17.13;82.53
37238;BME280;23129;49.662;8.448;2023-03-25T12:23:38;100001.16;;;17.03;79.89
37238;BME280;23129;49.662;8.448;2023-03-25T12:26:13;100005.41;;;17.05;79.09
37238;BME280;23129;49.662;8.448;2023-03-25T12:29:09;100001.16;;;17.17;77.53
37238;BME280;23129;49.662;8.448;2023-03-25T12:31:54;99979.50;;;17.38;76.32
37238;BME280;23129;49.662;8.448;2023-03-25T12:34:36;99989.06;;;17.40;72.57
37238;BME280;23129;49.662;8.448;2023-03-25T12:37:18;99986.13;;;17.59;74.55
37238;BME280;23129;49.662;8.448;2023-03-25T12:40:02;99977.91;;;17.76;74.24
37238;BME280;23129;49.662;8.448;2023-03-25T12:42:45;99984.38;;;17.99;72.67
37238;BME280;23129;49.662;8.448;2023-03-25T12:45:30;99983.59;;;18.24;72.98
37238;BME280;23129;49.662;8.448;2023-03-25T12:48:16;99968.00;;;18.33;70.33
37238;BME280;23129;49.662;8.448;2023-03-25T12:50:58;99964.50;;;18.45;70.06
37238;BME280;23129;49.662;8.448;2023-03-25T12:53:42;99971.53;;;18.46;69.62
37238;BME280;23129;49.662;8.448;2023-03-25T12:56:33;99974.41;;;18.43;68.86
37238;BME280;23129;49.662;8.448;2023-03-25T12:59:37;99957.09;;;18.50;67.99
37238;BME280;23129;49.662;8.448;2023-03-25T13:02:33;99952.41;;;18.41;68.77
37238;BME280;23129;49.662;8.448;2023-03-25T13:05:15;99985.53;;;18.48;66.86
37238;BME280;23129;49.662;8.448;2023-03-25T13:07:49;99956.84;;;18.28;64.69
37238;BME280;23129;49.662;8.448;2023-03-25T13:10:22;99959.38;;;18.16;66.21
37238;BME280;23129;49.662;8.448;2023-03-25T13:12:53;99949.97;;;18.25;64.98
37238;BME280;23129;49.662;8.448;2023-03-25T13:15:24;99953.13;;;18.30;65.26
37238;BME280;23129;49.662;8.448;2023-03-25T13:17:56;99935.84;;;18.37;63.70
37238;BME280;23129;49.662;8.448;2023-03-25T13:20:28;99944.00;;;18.34;63.68
37238;BME280;23129;49.662;8.448;2023-03-25T13:23:03;99937.53;;;18.38;63.39
37238;BME280;23129;49.662;8.448;2023-03-25T13:25:41;99916.41;;;18.37;63.28
37238;BME280;23129;49.662;8.448;2023-03-25T13:28:16;99939.88;;;18.43;63.23
37238;BME280;23129;49.662;8.448;2023-03-25T13:30:49;99963.03;;;18.54;62.84
37238;BME280;23129;49.662;8.448;2023-03-25T13:33:22;99928.41;;;18.55;62.38
37238;BME280;23129;49.662;8.448;2023-03-25T13:35:55;99929.78;;;18.61;62.14
37238;BME280;23129;49.662;8.448;2023-03-25T13:38:30;99948.41;;;18.74;61.25